createdAt,value
2017-05-30T00:00:25.194Z,15.82
2017-05-30T00:02:52.761Z,15.82
2017-05-30T00:05:21.087Z,15.84
2017-05-30T00:07:49.395Z,15.20
2017-05-30T00:10:17.712Z,15.50
2017-05-30T00:12:46.027Z,14.48
2017-05-30T00:15:14.339Z,14.92
2017-05-30T00:17:42.651Z,15.46
2017-05-30T00:20:10.208Z,16.04
2017-05-30T00:22:37.755Z,13.36
2017-05-30T00:25:06.074Z,14.80
2017-05-30T00:27:34.383Z,15.56
2017-05-30T00:30:01.934Z,18.80
2017-05-30T00:32:30.267Z,15.38
2017-05-30T00:34:58.582Z,15.80
2017-05-30T00:37:26.925Z,15.82
2017-05-30T00:39:55.238Z,14.50
2017-05-30T00:42:22.800Z,18.68
2017-05-30T00:44:51.116Z,16.38
2017-05-30T00:47:19.430Z,15.50
2017-05-30T00:49:46.970Z,17.74
2017-05-30T00:52:14.554Z,15.16
2017-05-30T00:54:42.147Z,16.92
2017-05-30T00:57:10.463Z,16.88
2017-05-30T00:59:38.803Z,15.28
2017-05-30T01:02:07.122Z,16.82
2017-05-30T01:04:35.433Z,17.30
2017-05-30T01:07:03.742Z,16.90
2017-05-30T01:09:32.054Z,15.00
2017-05-30T01:12:00.366Z,16.94
2017-05-30T01:14:28.679Z,16.52
2017-05-30T01:16:56.234Z,16.24
2017-05-30T01:19:24.555Z,20.94
2017-05-30T01:21:52.902Z,15.04
2017-05-30T01:24:21.215Z,15.62
2017-05-30T01:26:49.557Z,19.12
2017-05-30T01:29:17.872Z,18.96
2017-05-30T01:31:46.217Z,16.58
2017-05-30T01:34:13.761Z,18.46
2017-05-30T01:36:42.075Z,19.70
2017-05-30T01:39:10.390Z,18.58
2017-05-30T01:41:38.710Z,32.30
2017-05-30T01:44:07.022Z,18.84
2017-05-30T01:46:34.565Z,19.20
2017-05-30T01:49:02.885Z,18.82
2017-05-30T01:51:30.451Z,20.04
2017-05-30T01:53:58.786Z,21.10
2017-05-30T01:56:27.094Z,20.40
2017-05-30T01:58:55.422Z,20.48
2017-05-30T02:01:22.974Z,22.94
2017-05-30T02:03:50.553Z,20.76
2017-05-30T02:06:18.868Z,26.44
2017-05-30T02:08:47.191Z,20.50
2017-05-30T02:11:15.535Z,22.48
2017-05-30T02:13:43.843Z,22.74
2017-05-30T02:16:12.234Z,23.96
2017-05-30T02:18:40.549Z,26.00
2017-05-30T02:21:08.888Z,22.82
2017-05-30T02:23:37.271Z,24.04
2017-05-30T02:26:05.615Z,23.50
2017-05-30T02:28:33.963Z,23.14
2017-05-30T02:31:02.330Z,23.66
2017-05-30T02:33:30.740Z,24.96
2017-05-30T02:35:59.055Z,23.44
2017-05-30T02:38:27.370Z,25.28
2017-05-30T02:40:55.700Z,24.24
2017-05-30T02:43:24.010Z,25.02
2017-05-30T02:45:52.330Z,23.94
2017-05-30T02:48:20.667Z,22.42
2017-05-30T02:50:48.991Z,24.14
2017-05-30T02:53:17.372Z,23.68
2017-05-30T02:55:58.560Z,23.04
2017-05-30T02:58:26.905Z,24.16
2017-05-30T03:00:55.311Z,24.32
2017-05-30T03:03:23.751Z,25.82
2017-05-30T03:05:52.092Z,25.18
2017-05-30T03:08:20.530Z,23.66
2017-05-30T03:10:48.867Z,23.20
2017-05-30T03:13:17.187Z,24.66
2017-05-30T03:15:45.547Z,24.12
2017-05-30T03:18:13.866Z,26.14
2017-05-30T03:20:42.300Z,29.10
2017-05-30T03:23:10.612Z,28.90
2017-05-30T03:25:38.950Z,35.48
2017-05-30T03:28:07.274Z,39.26
2017-05-30T03:30:35.594Z,27.62
2017-05-30T03:33:03.910Z,27.26
2017-05-30T03:35:32.230Z,25.24
2017-05-30T03:38:00.536Z,30.72
2017-05-30T03:40:28.871Z,29.18
2017-05-30T03:42:57.234Z,29.92
2017-05-30T03:45:25.590Z,29.46
2017-05-30T03:47:53.908Z,30.42
2017-05-30T03:50:22.219Z,51.74
2017-05-30T03:52:49.762Z,26.80
2017-05-30T03:55:18.079Z,30.98
2017-05-30T03:57:46.391Z,30.74
2017-05-30T04:00:14.704Z,29.50
2017-05-30T04:02:43.027Z,28.30
2017-05-30T04:05:11.355Z,28.74
2017-05-30T04:07:39.698Z,27.30
2017-05-30T04:10:07.253Z,29.72
2017-05-30T04:12:35.597Z,26.44
2017-05-30T04:15:04.003Z,26.30
2017-05-30T04:17:32.322Z,28.32
2017-05-30T04:20:00.643Z,30.62
2017-05-30T04:22:29.038Z,28.56
2017-05-30T04:24:57.415Z,29.06
2017-05-30T04:27:25.744Z,28.68
2017-05-30T04:29:54.080Z,27.24
2017-05-30T04:32:22.402Z,34.68
2017-05-30T04:34:50.734Z,26.84
2017-05-30T04:37:19.052Z,25.70
2017-05-30T04:39:47.422Z,26.52
2017-05-30T04:42:15.752Z,30.10
2017-05-30T04:44:44.072Z,27.40
2017-05-30T04:47:12.430Z,26.88
2017-05-30T04:49:40.806Z,25.14
2017-05-30T04:52:09.123Z,29.14
2017-05-30T04:54:37.442Z,26.38
2017-05-30T04:57:05.755Z,28.16
2017-05-30T04:59:34.091Z,28.80
2017-05-30T05:02:02.497Z,67.42
2017-05-30T05:04:30.810Z,53.08
2017-05-30T05:06:59.154Z,60.28
2017-05-30T05:09:27.537Z,64.18
2017-05-30T05:11:55.926Z,32.00
2017-05-30T05:14:24.235Z,29.26
2017-05-30T05:16:52.551Z,26.76
2017-05-30T05:19:20.959Z,34.64
2017-05-30T05:21:49.274Z,38.06
2017-05-30T05:24:17.597Z,27.88
2017-05-30T05:26:45.910Z,37.36
2017-05-30T05:29:14.235Z,77.52
2017-05-30T05:31:42.550Z,28.38
2017-05-30T05:34:10.924Z,28.70
2017-05-30T05:36:39.314Z,30.60
2017-05-30T05:39:07.655Z,29.30
2017-05-30T05:41:36.075Z,29.08
2017-05-30T05:44:03.654Z,32.94
2017-05-30T05:46:31.195Z,29.78
2017-05-30T05:48:59.511Z,39.38
2017-05-30T05:51:27.823Z,27.30
2017-05-30T05:53:55.803Z,26.34
2017-05-30T05:56:23.355Z,26.50
2017-05-30T05:58:51.668Z,29.12
2017-05-30T06:01:19.223Z,27.32
2017-05-30T06:03:47.634Z,35.98
2017-05-30T06:06:15.965Z,27.36
2017-05-30T06:08:44.272Z,38.74
2017-05-30T06:11:12.615Z,33.68
2017-05-30T06:13:40.931Z,34.28
2017-05-30T06:16:09.282Z,38.52
2017-05-30T06:18:37.590Z,31.66
2017-05-30T06:21:05.138Z,33.52
2017-05-30T06:23:32.686Z,29.86
2017-05-30T06:26:00.239Z,32.00
2017-05-30T06:28:28.556Z,28.02
2017-05-30T06:30:56.105Z,23.58
2017-05-30T06:33:23.642Z,25.34
2017-05-30T06:35:51.955Z,21.76
2017-05-30T06:38:20.294Z,26.50
2017-05-30T06:40:48.608Z,25.30
2017-05-30T06:43:16.953Z,25.12
2017-05-30T06:45:44.515Z,24.14
2017-05-30T06:48:12.862Z,24.72
2017-05-30T06:50:40.419Z,25.52
2017-05-30T06:53:08.731Z,28.80
2017-05-30T06:55:37.043Z,27.66
2017-05-30T06:58:05.355Z,24.42
2017-05-30T07:00:37.210Z,29.20
2017-05-30T07:03:04.775Z,27.96
2017-05-30T07:05:33.115Z,33.56
2017-05-30T07:08:01.422Z,36.76
2017-05-30T07:10:29.763Z,34.30
2017-05-30T07:12:58.088Z,30.98
2017-05-30T07:15:25.674Z,34.70
2017-05-30T07:17:54.042Z,38.52
2017-05-30T07:20:21.587Z,43.30
2017-05-30T07:22:49.143Z,35.82
2017-05-30T07:25:16.698Z,35.36
2017-05-30T07:27:45.020Z,40.32
2017-05-30T07:30:13.334Z,42.60
2017-05-30T07:32:41.647Z,44.94
2017-05-30T07:35:09.979Z,49.00
2017-05-30T07:37:38.302Z,42.52
2017-05-30T07:40:05.875Z,41.66
2017-05-30T07:42:33.442Z,43.90
2017-05-30T07:45:01.759Z,42.00
2017-05-30T07:47:30.118Z,51.54
2017-05-30T07:49:58.427Z,46.20
2017-05-30T07:52:25.988Z,48.54
2017-05-30T07:54:53.548Z,45.38
2017-05-30T07:57:21.872Z,43.04
2017-05-30T07:59:50.201Z,52.52
2017-05-30T08:02:18.519Z,47.72
2017-05-30T08:04:46.071Z,43.94
2017-05-30T08:07:14.384Z,44.40
2017-05-30T08:09:42.731Z,43.78
2017-05-30T08:12:11.085Z,43.44
2017-05-30T08:14:38.663Z,44.36
2017-05-30T08:17:06.975Z,44.70
2017-05-30T08:19:35.285Z,41.94
2017-05-30T08:22:02.830Z,37.90
2017-05-30T08:24:30.395Z,50.34
2017-05-30T08:26:58.710Z,42.36
2017-05-30T08:29:26.271Z,39.98
2017-05-30T08:31:54.579Z,38.34
2017-05-30T08:34:22.899Z,35.56
2017-05-30T08:36:50.451Z,36.26
2017-05-30T08:39:18.800Z,33.88
2017-05-30T08:41:47.319Z,32.06
2017-05-30T08:44:14.872Z,30.70
2017-05-30T08:46:43.227Z,30.70
2017-05-30T08:49:11.550Z,27.44
2017-05-30T08:51:39.867Z,30.76
2017-05-30T08:54:08.221Z,25.38
2017-05-30T08:56:35.776Z,25.14
2017-05-30T08:59:04.091Z,26.18
2017-05-30T09:01:32.415Z,31.80
2017-05-30T09:04:00.731Z,31.20
2017-05-30T09:06:29.063Z,31.04
2017-05-30T09:08:57.407Z,28.32
2017-05-30T09:11:25.727Z,26.18
2017-05-30T09:13:54.075Z,25.54
2017-05-30T09:16:22.396Z,28.74
2017-05-30T09:18:50.706Z,23.42
2017-05-30T09:21:18.262Z,25.06
2017-05-30T09:23:46.582Z,21.88
2017-05-30T09:26:14.911Z,20.76
2017-05-30T09:28:43.230Z,22.28
2017-05-30T09:31:10.823Z,23.60
2017-05-30T09:33:38.397Z,18.36
2017-05-30T09:36:06.756Z,15.72
2017-05-30T09:38:35.067Z,15.16
2017-05-30T09:41:03.435Z,18.70
2017-05-30T09:43:31.753Z,16.12
2017-05-30T09:46:00.071Z,17.34
2017-05-30T09:48:28.410Z,17.32
2017-05-30T09:50:56.728Z,14.44
2017-05-30T09:53:24.286Z,14.54
2017-05-30T09:55:52.606Z,14.50
2017-05-30T09:58:20.944Z,14.22
2017-05-30T10:00:49.262Z,15.04
2017-05-30T10:03:17.630Z,15.44
2017-05-30T10:05:45.182Z,14.90
2017-05-30T10:08:13.527Z,15.94
2017-05-30T10:10:41.849Z,17.50
2017-05-30T10:13:09.445Z,16.84
2017-05-30T10:15:37.770Z,22.00
2017-05-30T10:18:06.100Z,18.94
2017-05-30T10:20:33.646Z,15.94
2017-05-30T10:23:01.188Z,17.06
2017-05-30T10:25:29.504Z,16.52
2017-05-30T10:27:57.819Z,16.70
2017-05-30T10:30:26.164Z,18.70
2017-05-30T10:32:54.482Z,19.66
2017-05-30T10:35:22.062Z,17.86
2017-05-30T10:37:50.383Z,20.00
2017-05-30T10:40:18.717Z,18.88
2017-05-30T10:42:47.041Z,21.96
2017-05-30T10:45:14.623Z,18.70
2017-05-30T10:47:42.939Z,19.50
2017-05-30T10:50:11.251Z,18.62
2017-05-30T10:52:38.816Z,22.06
2017-05-30T10:55:06.386Z,18.20
2017-05-30T10:57:34.758Z,18.74
2017-05-30T11:00:03.076Z,18.44
2017-05-30T11:02:30.650Z,19.84
2017-05-30T11:04:58.958Z,15.60
2017-05-30T11:07:27.306Z,15.68
2017-05-30T11:09:55.628Z,15.42
2017-05-30T11:12:23.953Z,15.06
2017-05-30T11:14:52.264Z,15.32
2017-05-30T11:17:20.589Z,14.74
2017-05-30T11:19:48.166Z,12.72
2017-05-30T11:22:16.482Z,12.06
2017-05-30T11:24:44.819Z,14.32
2017-05-30T11:27:13.135Z,16.74
2017-05-30T11:29:40.719Z,14.76
2017-05-30T11:32:08.283Z,15.20
2017-05-30T11:34:35.857Z,28.96
2017-05-30T11:37:03.411Z,16.12
2017-05-30T11:39:31.762Z,14.62
2017-05-30T11:41:59.313Z,12.46
2017-05-30T11:44:27.627Z,12.78
2017-05-30T11:46:55.179Z,12.28
2017-05-30T11:49:23.509Z,12.48
2017-05-30T11:51:51.830Z,10.66
2017-05-30T11:54:19.377Z,13.78
2017-05-30T11:56:46.922Z,10.62
2017-05-30T11:59:15.261Z,10.42
2017-05-30T12:01:43.585Z,11.70
2017-05-30T12:04:11.915Z,13.02
2017-05-30T12:06:40.263Z,12.48
2017-05-30T12:09:08.595Z,13.50
2017-05-30T12:11:36.139Z,11.64
2017-05-30T12:14:04.463Z,9.36
2017-05-30T12:16:32.779Z,11.26
2017-05-30T12:19:01.101Z,9.92
2017-05-30T12:21:29.439Z,9.94
2017-05-30T12:23:57.779Z,9.48
2017-05-30T12:26:26.097Z,8.28
2017-05-30T12:28:54.401Z,8.86
2017-05-30T12:31:21.957Z,9.02
2017-05-30T12:33:49.553Z,7.18
2017-05-30T12:36:17.110Z,7.64
2017-05-30T12:38:45.425Z,13.14
2017-05-30T12:41:12.988Z,8.44
2017-05-30T12:43:40.555Z,8.92
2017-05-30T12:46:08.874Z,7.58
2017-05-30T12:48:37.197Z,7.08
2017-05-30T12:51:05.503Z,8.42
2017-05-30T12:53:33.043Z,9.66
2017-05-30T12:56:00.604Z,7.88
2017-05-30T12:58:28.908Z,7.56
2017-05-30T13:00:57.259Z,6.32
2017-05-30T13:03:25.578Z,6.64
2017-05-30T13:05:53.118Z,7.34
2017-05-30T13:08:21.430Z,10.38
2017-05-30T13:10:49.746Z,7.52
2017-05-30T13:13:18.057Z,6.74
2017-05-30T13:15:46.367Z,6.50
2017-05-30T13:18:13.925Z,9.02
2017-05-30T13:20:41.464Z,8.32
2017-05-30T13:23:09.781Z,8.46
2017-05-30T13:25:37.331Z,7.04
2017-05-30T13:28:04.903Z,8.30
2017-05-30T13:30:32.457Z,9.12
2017-05-30T13:33:00.803Z,8.80
2017-05-30T13:35:29.114Z,8.70
2017-05-30T13:37:57.443Z,8.96
2017-05-30T13:40:25.771Z,8.14
2017-05-30T13:42:54.075Z,7.68
2017-05-30T13:45:21.627Z,7.32
2017-05-30T13:47:49.938Z,12.88
2017-05-30T13:50:18.242Z,7.38
2017-05-30T13:52:45.788Z,16.12
2017-05-30T13:55:13.358Z,7.58
2017-05-30T13:57:41.671Z,7.52
2017-05-30T14:00:10.021Z,7.18
2017-05-30T14:02:37.562Z,9.06
2017-05-30T14:05:05.869Z,10.80
2017-05-30T14:07:34.195Z,8.14
2017-05-30T14:10:01.735Z,7.40
2017-05-30T14:12:29.275Z,7.08
2017-05-30T14:14:57.592Z,10.24
2017-05-30T14:17:25.902Z,7.50
2017-05-30T14:19:53.458Z,10.72
2017-05-30T14:22:21.032Z,19.54
2017-05-30T14:24:48.594Z,13.34
2017-05-30T14:27:16.947Z,13.02
2017-05-30T14:29:45.252Z,14.08
2017-05-30T14:32:13.575Z,10.42
2017-05-30T14:34:41.932Z,11.34
2017-05-30T14:37:10.251Z,11.78
2017-05-30T14:39:37.805Z,12.10
2017-05-30T14:42:06.130Z,13.28
2017-05-30T14:44:34.463Z,14.90
2017-05-30T14:47:02.772Z,17.04
2017-05-30T14:49:31.120Z,14.12
2017-05-30T14:51:58.682Z,19.48
2017-05-30T14:54:27.001Z,12.96
2017-05-30T14:56:55.326Z,14.20
2017-05-30T14:59:23.639Z,16.16
2017-05-30T15:01:51.203Z,18.92
2017-05-30T15:04:18.763Z,14.46
2017-05-30T15:06:46.362Z,16.26
2017-05-30T15:09:14.693Z,14.50
2017-05-30T15:11:43.039Z,14.86
2017-05-30T15:14:10.624Z,16.36
2017-05-30T15:16:38.450Z,15.46
2017-05-30T15:19:06.758Z,15.16
2017-05-30T15:21:35.074Z,15.14
2017-05-30T15:24:03.392Z,16.94
2017-05-30T15:26:30.954Z,18.08
2017-05-30T15:28:59.315Z,16.42
2017-05-30T15:31:27.640Z,18.32
2017-05-30T15:33:55.976Z,16.40
2017-05-30T15:36:23.528Z,18.58
2017-05-30T15:38:51.867Z,24.70
2017-05-30T15:41:19.447Z,18.46
2017-05-30T15:43:47.803Z,19.54
2017-05-30T15:46:16.121Z,18.06
2017-05-30T15:48:44.453Z,18.66
2017-05-30T15:51:12.771Z,19.54
2017-05-30T15:53:40.339Z,17.46
2017-05-30T15:56:08.714Z,20.46
2017-05-30T15:58:37.031Z,19.82
2017-05-30T16:01:05.392Z,20.76
2017-05-30T16:03:33.726Z,18.96
2017-05-30T16:06:02.108Z,19.20
2017-05-30T16:08:30.540Z,18.58
2017-05-30T16:10:58.855Z,16.70
2017-05-30T16:13:27.216Z,17.96
2017-05-30T16:15:55.576Z,16.58
2017-05-30T16:18:23.890Z,17.74
2017-05-30T16:20:52.232Z,18.50
2017-05-30T16:23:20.611Z,18.92
2017-05-30T16:25:48.967Z,19.60
2017-05-30T16:28:17.376Z,20.20
2017-05-30T16:30:45.695Z,19.42
2017-05-30T16:33:14.009Z,19.90
2017-05-30T16:35:42.339Z,19.60
2017-05-30T16:38:10.651Z,20.96
2017-05-30T16:40:38.964Z,18.58
2017-05-30T16:43:07.341Z,20.94
2017-05-30T16:45:35.723Z,20.78
2017-05-30T16:48:04.043Z,19.40
2017-05-30T16:50:32.406Z,18.30
2017-05-30T16:53:00.803Z,18.00
2017-05-30T16:55:29.159Z,17.72
2017-05-30T16:57:57.475Z,17.70
2017-05-30T17:00:25.802Z,19.30
2017-05-30T17:02:54.124Z,18.42
2017-05-30T17:05:22.449Z,16.92
2017-05-30T17:07:50.774Z,18.02
2017-05-30T17:10:19.126Z,17.72
2017-05-30T17:12:47.505Z,21.08
2017-05-30T17:15:15.839Z,15.88
2017-05-30T17:17:44.152Z,16.58
2017-05-30T17:20:12.502Z,16.94
2017-05-30T17:22:40.850Z,15.90
2017-05-30T17:25:09.221Z,14.66
2017-05-30T17:27:37.552Z,13.92
2017-05-30T17:30:05.888Z,14.44
2017-05-30T17:32:34.205Z,21.52
2017-05-30T17:35:02.623Z,19.56
2017-05-30T17:37:30.971Z,15.28
2017-05-30T17:39:59.300Z,15.66
2017-05-30T17:42:27.655Z,14.60
2017-05-30T17:44:55.994Z,19.94
2017-05-30T17:47:24.354Z,18.00
2017-05-30T17:49:52.677Z,30.06
2017-05-30T17:52:21.084Z,19.32
2017-05-30T17:54:49.441Z,22.82
2017-05-30T17:57:17.804Z,46.08
2017-05-30T17:59:46.132Z,21.16
2017-05-30T18:02:14.472Z,19.66
2017-05-30T18:04:42.818Z,23.06
2017-05-30T18:07:11.153Z,20.50
2017-05-30T18:09:39.532Z,21.14
2017-05-30T18:12:07.079Z,23.14
2017-05-30T18:14:34.669Z,21.02
2017-05-30T18:17:02.995Z,19.50
2017-05-30T18:19:31.335Z,19.72
2017-05-30T18:21:59.653Z,18.36
2017-05-30T18:24:27.967Z,18.50
2017-05-30T18:26:55.518Z,21.04
2017-05-30T18:29:23.835Z,19.72
2017-05-30T18:31:52.177Z,20.66
2017-05-30T18:34:20.510Z,21.08
2017-05-30T18:36:48.093Z,22.14
2017-05-30T18:39:16.420Z,21.30
2017-05-30T18:41:44.759Z,21.08
2017-05-30T18:44:12.308Z,22.92
2017-05-30T18:46:40.650Z,20.34
2017-05-30T18:49:08.966Z,21.62
2017-05-30T18:51:36.550Z,21.94
2017-05-30T18:54:04.102Z,18.76
2017-05-30T18:56:32.419Z,22.32
2017-05-30T18:59:00.746Z,21.38
2017-05-30T19:01:29.071Z,20.66
2017-05-30T19:03:57.404Z,18.64
2017-05-30T19:06:25.750Z,22.02
2017-05-30T19:08:54.107Z,23.58
2017-05-30T19:11:21.763Z,21.94
2017-05-30T19:13:50.099Z,18.78
2017-05-30T19:16:18.466Z,18.64
2017-05-30T19:18:46.820Z,18.72
2017-05-30T19:21:15.162Z,27.06
2017-05-30T19:23:43.579Z,34.36
2017-05-30T19:26:11.903Z,23.32
2017-05-30T19:28:40.230Z,21.82
2017-05-30T19:31:08.542Z,20.30
2017-05-30T19:33:36.858Z,19.14
2017-05-30T19:36:05.209Z,18.36
2017-05-30T19:38:33.550Z,21.16
2017-05-30T19:41:01.918Z,18.16
2017-05-30T19:43:30.250Z,20.70
2017-05-30T19:45:58.624Z,19.02
2017-05-30T19:48:26.946Z,21.58
2017-05-30T19:50:55.270Z,18.00
2017-05-30T19:53:23.603Z,18.98
2017-05-30T19:55:51.938Z,19.12
2017-05-30T19:58:20.293Z,20.64
2017-05-30T20:00:48.607Z,18.68
2017-05-30T20:03:16.946Z,18.44
2017-05-30T20:05:45.260Z,16.84
2017-05-30T20:08:13.662Z,16.10
2017-05-30T20:10:42.052Z,15.34
2017-05-30T20:13:10.418Z,11.56
2017-05-30T20:15:38.744Z,12.36
2017-05-30T20:18:07.108Z,9.14
2017-05-30T20:20:35.426Z,10.02
2017-05-30T20:23:03.767Z,13.40
2017-05-30T20:25:32.092Z,13.40
2017-05-30T20:28:00.503Z,11.42
2017-05-30T20:30:28.822Z,10.10
2017-05-30T20:32:57.138Z,10.88
2017-05-30T20:35:25.460Z,12.96
2017-05-30T20:37:53.824Z,9.84
2017-05-30T20:40:22.172Z,8.72
2017-05-30T20:42:50.494Z,17.16
2017-05-30T20:45:18.836Z,10.12
2017-05-30T20:47:47.142Z,9.42
2017-05-30T20:50:15.454Z,11.02
2017-05-30T20:52:43.781Z,12.34
2017-05-30T20:55:12.451Z,11.18
2017-05-30T20:57:40.819Z,12.60
2017-05-30T21:00:08.367Z,7.96
2017-05-30T21:02:36.674Z,9.00
2017-05-30T21:05:04.979Z,17.72
2017-05-30T21:07:32.593Z,13.66
2017-05-30T21:10:00.898Z,9.64
2017-05-30T21:12:29.230Z,10.60
2017-05-30T21:14:56.788Z,10.60
2017-05-30T21:17:25.135Z,13.44
2017-05-30T21:19:52.686Z,11.00
2017-05-30T21:22:21.003Z,10.94
2017-05-30T21:24:48.560Z,14.58
2017-05-30T21:27:16.872Z,14.38
2017-05-30T21:29:44.436Z,11.80
2017-05-30T21:32:12.748Z,13.20
2017-05-30T21:34:41.095Z,15.12
2017-05-30T21:37:09.402Z,15.04
2017-05-30T21:39:37.735Z,15.14
2017-05-30T21:42:05.274Z,12.74
2017-05-30T21:44:32.877Z,15.64
2017-05-30T21:47:01.190Z,11.42
2017-05-30T21:49:29.511Z,10.36
2017-05-30T21:51:57.067Z,9.90
2017-05-30T21:56:58.299Z,8.16
2017-05-30T21:59:26.626Z,14.20
2017-05-30T22:01:54.199Z,8.38
2017-05-30T22:04:21.748Z,9.34
2017-05-30T22:06:49.326Z,7.40
2017-05-30T22:09:17.644Z,8.64
2017-05-30T22:11:45.219Z,9.32
2017-05-30T22:14:12.994Z,7.50
2017-05-30T22:16:41.311Z,7.94
2017-05-30T22:19:08.866Z,7.94
2017-05-30T22:21:36.429Z,9.58
2017-05-30T22:24:04.788Z,14.18
2017-05-30T22:26:33.109Z,10.42
2017-05-30T22:29:01.454Z,9.00
2017-05-30T22:31:29.769Z,8.18
2017-05-30T22:33:58.114Z,13.78
2017-05-30T22:36:25.655Z,9.78
2017-05-30T22:38:54.019Z,13.08
2017-05-30T22:41:22.343Z,10.92
2017-05-30T22:43:50.655Z,10.52
2017-05-30T22:46:18.215Z,10.56
2017-05-30T22:48:46.547Z,13.44
2017-05-30T22:51:14.883Z,8.84
2017-05-30T22:53:43.194Z,11.32
2017-05-30T22:56:10.769Z,10.68
2017-05-30T22:58:39.078Z,16.94
2017-05-30T23:01:06.671Z,16.04
2017-05-30T23:03:34.222Z,12.82
2017-05-30T23:06:01.819Z,18.02
2017-05-30T23:08:30.146Z,13.04
2017-05-30T23:10:58.480Z,12.90
2017-05-30T23:13:26.044Z,15.22
2017-05-30T23:15:53.590Z,18.50
2017-05-30T23:18:21.939Z,14.14
2017-05-30T23:20:50.258Z,14.56
2017-05-30T23:23:17.843Z,16.40
2017-05-30T23:25:45.412Z,13.56
2017-05-30T23:28:13.755Z,14.78
2017-05-30T23:30:42.067Z,17.94
2017-05-30T23:33:09.646Z,15.56
2017-05-30T23:35:37.965Z,14.58
2017-05-30T23:38:05.546Z,15.18
2017-05-30T23:40:33.858Z,11.26
2017-05-30T23:43:01.430Z,16.46
2017-05-30T23:45:30.032Z,13.10
2017-05-30T23:47:58.338Z,10.20
2017-05-30T23:50:25.950Z,10.32
2017-05-30T23:52:54.260Z,11.00
2017-05-30T23:55:21.867Z,10.64
2017-05-30T23:57:50.181Z,11.54
